Metar z połowy godziny Komunikat METAR ze strony awiacja.imgw.pl Metar G30 EPLL METAR EPLL 190130Z 00000KT CAVOK 13/11 Q1019 =